createdAt,value
2022-08-26T00:01:46.657Z,13.02
2022-08-26T00:04:13.540Z,13.50
2022-08-26T00:06:42.520Z,12.65
2022-08-26T00:09:13.652Z,12.85
2022-08-26T00:11:46.633Z,13.43
2022-08-26T00:14:14.276Z,12.07
2022-08-26T00:16:48.172Z,11.70
2022-08-26T00:19:20.372Z,13.63
2022-08-26T00:21:49.631Z,13.10
2022-08-26T00:24:18.222Z,11.65
2022-08-26T00:26:44.895Z,12.63
2022-08-26T00:29:12.243Z,11.55
2022-08-26T00:31:39.320Z,12.68
2022-08-26T00:34:06.893Z,11.88
2022-08-26T00:36:36.485Z,11.48
2022-08-26T00:39:04.282Z,12.00
2022-08-26T00:41:30.994Z,12.82
2022-08-26T00:43:57.698Z,13.15
2022-08-26T00:46:31.327Z,11.80
2022-08-26T00:49:19.173Z,12.70
2022-08-26T00:51:56.226Z,12.80
2022-08-26T00:54:27.230Z,12.93
2022-08-26T00:57:02.404Z,13.38
2022-08-26T00:59:32.843Z,13.93
2022-08-26T01:02:02.523Z,12.77
2022-08-26T01:04:34.855Z,11.32
2022-08-26T01:07:01.924Z,13.10
2022-08-26T01:09:29.601Z,13.95
2022-08-26T01:11:58.827Z,14.38
2022-08-26T01:14:29.907Z,16.25
2022-08-26T01:16:56.595Z,15.77
2022-08-26T01:19:31.094Z,15.15
2022-08-26T01:22:03.080Z,15.88
2022-08-26T01:24:36.706Z,14.80
2022-08-26T01:27:08.049Z,17.40
2022-08-26T01:29:38.016Z,16.30
2022-08-26T01:32:07.490Z,17.45
2022-08-26T01:34:36.685Z,18.83
2022-08-26T01:37:15.836Z,19.48
2022-08-26T01:39:46.365Z,15.52
2022-08-26T01:42:14.983Z,13.35
2022-08-26T01:44:51.439Z,15.68
2022-08-26T01:47:21.443Z,13.85
2022-08-26T01:49:51.549Z,16.58
2022-08-26T01:52:24.560Z,16.80
2022-08-26T01:54:57.327Z,20.63
2022-08-26T01:57:25.262Z,19.33
2022-08-26T01:59:55.352Z,16.95
2022-08-26T02:02:23.106Z,15.77
2022-08-26T02:04:57.207Z,14.68
2022-08-26T02:07:24.946Z,16.83
2022-08-26T02:09:54.780Z,15.13
2022-08-26T02:12:21.930Z,17.33
2022-08-26T02:14:53.635Z,17.35
2022-08-26T02:17:24.574Z,14.95
2022-08-26T02:19:51.376Z,16.90
2022-08-26T02:22:20.953Z,14.70
2022-08-26T02:24:55.791Z,17.10
2022-08-26T02:27:26.147Z,15.75
2022-08-26T02:30:09.496Z,14.88
2022-08-26T02:32:37.220Z,16.15
2022-08-26T02:35:08.920Z,15.98
2022-08-26T02:37:36.072Z,15.90
2022-08-26T02:40:04.003Z,15.05
2022-08-26T02:42:31.033Z,17.48
2022-08-26T02:44:57.725Z,17.10
2022-08-26T02:47:25.506Z,18.83
2022-08-26T02:49:55.807Z,18.63
2022-08-26T02:52:22.538Z,19.05
2022-08-26T02:54:49.592Z,16.63
2022-08-26T02:57:16.807Z,16.80
2022-08-26T02:59:44.062Z,19.80
2022-08-26T03:02:11.390Z,21.02
2022-08-26T03:04:39.727Z,18.33
2022-08-26T03:07:07.099Z,16.48
2022-08-26T03:09:33.966Z,15.88
2022-08-26T03:12:01.459Z,16.40
2022-08-26T03:14:29.781Z,15.63
2022-08-26T03:16:56.702Z,17.02
2022-08-26T03:19:24.974Z,16.73
2022-08-26T03:21:53.419Z,20.73
2022-08-26T03:24:25.673Z,20.13
2022-08-26T03:26:53.037Z,19.95
2022-08-26T03:29:39.314Z,17.77
2022-08-26T03:32:06.191Z,13.65
2022-08-26T03:34:33.403Z,13.52
2022-08-26T03:37:00.526Z,13.52
2022-08-26T03:39:27.866Z,14.50
2022-08-26T03:41:58.834Z,14.27
2022-08-26T03:44:26.447Z,13.60
2022-08-26T03:46:54.511Z,14.73
2022-08-26T03:49:22.231Z,13.98
2022-08-26T03:51:48.951Z,17.23
2022-08-26T03:54:17.474Z,18.45
2022-08-26T03:56:44.128Z,17.75
2022-08-26T03:59:13.379Z,20.02
2022-08-26T04:01:40.356Z,20.05
2022-08-26T04:04:07.086Z,20.92
2022-08-26T04:06:40.119Z,20.55
2022-08-26T04:09:10.290Z,21.33
2022-08-26T04:11:39.511Z,23.13
2022-08-26T04:14:10.087Z,19.42
2022-08-26T04:16:36.928Z,14.27
2022-08-26T04:19:03.697Z,19.25
2022-08-26T04:21:30.523Z,18.08
2022-08-26T04:23:58.307Z,20.38
2022-08-26T04:26:25.809Z,15.50
2022-08-26T04:28:54.439Z,15.38
2022-08-26T04:31:21.750Z,15.05
2022-08-26T04:33:49.976Z,15.50
2022-08-26T04:36:17.824Z,15.77
2022-08-26T04:38:47.702Z,13.90
2022-08-26T04:41:15.693Z,11.93
2022-08-26T04:43:44.696Z,15.00
2022-08-26T04:46:13.702Z,16.15
2022-08-26T04:48:41.299Z,19.20
2022-08-26T04:51:09.397Z,18.63
2022-08-26T04:53:36.743Z,19.20
2022-08-26T04:56:04.765Z,16.52
2022-08-26T04:58:32.043Z,18.20
2022-08-26T05:00:58.704Z,16.80
2022-08-26T05:03:27.320Z,16.65
2022-08-26T05:05:57.891Z,16.58
2022-08-26T05:08:24.563Z,21.33
2022-08-26T05:10:55.869Z,19.13
2022-08-26T05:13:26.488Z,19.42
2022-08-26T05:15:53.554Z,17.00
2022-08-26T05:18:23.050Z,17.35
2022-08-26T05:20:54.691Z,16.20
2022-08-26T05:23:23.657Z,14.85
2022-08-26T05:25:58.347Z,13.95
2022-08-26T05:28:28.632Z,13.05
2022-08-26T05:30:56.341Z,14.63
2022-08-26T05:33:23.845Z,14.50
2022-08-26T05:35:50.656Z,11.65
2022-08-26T05:38:21.610Z,12.05
2022-08-26T05:40:52.916Z,11.02
2022-08-26T05:43:20.426Z,11.40
2022-08-26T05:45:49.899Z,11.13
2022-08-26T05:48:22.873Z,11.75
2022-08-26T05:50:54.323Z,10.93
2022-08-26T05:53:22.211Z,10.60
2022-08-26T05:55:52.889Z,11.15
2022-08-26T05:58:24.429Z,10.27
2022-08-26T06:01:04.310Z,9.88
2022-08-26T06:03:33.879Z,9.90
2022-08-26T06:06:09.797Z,10.10
2022-08-26T06:08:38.107Z,9.65
2022-08-26T06:11:18.254Z,10.80
2022-08-26T06:13:46.263Z,9.40
2022-08-26T06:16:18.053Z,9.77
2022-08-26T06:18:46.491Z,9.45
2022-08-26T06:21:16.038Z,9.70
2022-08-26T06:24:02.353Z,9.15
2022-08-26T06:26:29.693Z,9.82
2022-08-26T06:28:56.921Z,8.70
2022-08-26T06:31:25.168Z,9.10
2022-08-26T06:33:52.782Z,9.00
2022-08-26T06:36:22.778Z,9.13
2022-08-26T06:38:52.116Z,8.57
2022-08-26T06:41:23.714Z,8.77
2022-08-26T06:43:52.424Z,9.10
2022-08-26T06:46:21.521Z,8.95
2022-08-26T06:48:48.774Z,8.52
2022-08-26T06:51:18.010Z,8.90
2022-08-26T06:53:47.181Z,8.02
2022-08-26T06:56:20.064Z,8.27
2022-08-26T06:58:46.954Z,8.50
2022-08-26T07:01:28.833Z,8.75
2022-08-26T07:03:58.548Z,8.82
2022-08-26T07:06:27.326Z,8.57
2022-08-26T07:09:01.393Z,7.97
2022-08-26T07:11:31.210Z,7.93
2022-08-26T07:13:58.950Z,8.73
2022-08-26T07:16:29.831Z,8.50
2022-08-26T07:18:57.320Z,7.68
2022-08-26T07:21:24.957Z,8.32
2022-08-26T07:23:57.505Z,8.63
2022-08-26T07:26:28.822Z,7.57
2022-08-26T07:28:57.391Z,7.70
2022-08-26T07:31:29.493Z,8.38
2022-08-26T07:33:57.537Z,8.00
2022-08-26T07:36:25.385Z,8.05
2022-08-26T07:38:52.895Z,7.35
2022-08-26T07:41:22.968Z,7.95
2022-08-26T07:43:50.980Z,8.20
2022-08-26T07:46:27.453Z,8.32
2022-08-26T07:48:58.032Z,7.60
2022-08-26T07:51:25.425Z,7.53
2022-08-26T07:53:53.188Z,8.00
2022-08-26T07:56:23.045Z,7.82
2022-08-26T07:58:51.794Z,7.60
2022-08-26T08:01:20.986Z,7.90
2022-08-26T08:03:51.306Z,7.93
2022-08-26T08:06:23.080Z,7.78
2022-08-26T08:11:21.999Z,8.13
2022-08-26T08:13:49.950Z,7.65
2022-08-26T08:16:24.541Z,7.15
2022-08-26T08:18:51.325Z,7.78
2022-08-26T08:21:21.235Z,7.63
2022-08-26T08:23:48.840Z,7.10
2022-08-26T08:26:15.686Z,8.45
2022-08-26T08:28:43.673Z,7.22
2022-08-26T08:31:38.995Z,7.03
2022-08-26T08:34:09.119Z,7.03
2022-08-26T08:36:36.082Z,6.63
2022-08-26T08:39:03.606Z,7.25
2022-08-26T08:41:52.470Z,7.00
2022-08-26T08:46:55.966Z,7.80
2022-08-26T08:49:25.942Z,7.70
2022-08-26T08:51:59.117Z,7.40
2022-08-26T08:54:30.002Z,7.82
2022-08-26T08:57:07.260Z,7.53
2022-08-26T08:59:38.440Z,8.48
2022-08-26T09:02:22.759Z,7.95
2022-08-26T09:04:58.138Z,7.88
2022-08-26T09:07:37.709Z,7.50
2022-08-26T09:10:20.925Z,8.95
2022-08-26T09:12:48.013Z,8.05
2022-08-26T09:15:31.326Z,8.52
2022-08-26T09:18:22.545Z,8.20
2022-08-26T09:20:56.622Z,8.43
2022-08-26T09:23:23.450Z,7.78
2022-08-26T09:25:55.673Z,7.82
2022-08-26T09:28:25.056Z,8.45
2022-08-26T09:31:19.335Z,7.68
2022-08-26T09:33:46.434Z,7.90
2022-08-26T09:36:26.256Z,9.13
2022-08-26T09:38:54.322Z,8.35
2022-08-26T09:41:25.900Z,8.48
2022-08-26T09:44:08.129Z,8.00
2022-08-26T09:46:46.477Z,7.97
2022-08-26T09:49:27.079Z,7.45
2022-08-26T09:52:15.833Z,6.93
2022-08-26T09:54:45.409Z,8.20
2022-08-26T09:57:22.675Z,7.75
2022-08-26T09:59:49.483Z,7.32
2022-08-26T10:02:31.662Z,8.48
2022-08-26T10:05:09.147Z,8.30
2022-08-26T10:07:45.114Z,8.10
2022-08-26T10:10:20.064Z,8.57
2022-08-26T10:13:03.185Z,8.23
2022-08-26T10:15:38.834Z,7.57
2022-08-26T10:18:17.438Z,8.02
2022-08-26T10:20:53.106Z,8.40
2022-08-26T10:23:26.934Z,8.43
2022-08-26T10:26:05.289Z,8.70
2022-08-26T10:28:37.446Z,8.98
2022-08-26T10:31:40.113Z,8.43
2022-08-26T10:34:08.209Z,8.13
2022-08-26T10:37:10.634Z,8.45
2022-08-26T10:39:49.547Z,8.48
2022-08-26T10:42:53.089Z,8.13
2022-08-26T10:45:25.320Z,8.18
2022-08-26T10:48:08.849Z,8.73
2022-08-26T10:50:43.110Z,8.13
2022-08-26T10:53:39.084Z,9.05
2022-08-26T10:56:29.700Z,8.68
2022-08-26T10:59:03.034Z,8.05
2022-08-26T11:01:51.152Z,8.20
2022-08-26T11:04:42.358Z,8.35
2022-08-26T11:07:43.586Z,8.75
2022-08-26T11:10:20.150Z,9.07
2022-08-26T11:13:17.205Z,7.95
2022-08-26T11:18:32.746Z,8.27
2022-08-26T11:21:00.987Z,8.07
2022-08-26T11:23:40.377Z,7.88
2022-08-26T11:26:08.686Z,9.02
2022-08-26T11:28:46.065Z,9.18
2022-08-26T11:31:26.132Z,7.93
2022-08-26T11:33:56.945Z,8.25
2022-08-26T11:36:51.427Z,8.00
2022-08-26T11:39:36.810Z,7.40
2022-08-26T11:42:28.421Z,8.13
2022-08-26T11:44:58.236Z,7.85
2022-08-26T11:47:30.604Z,7.22
2022-08-26T11:50:17.666Z,7.60
2022-08-26T11:53:01.459Z,7.70
2022-08-26T11:55:30.066Z,7.55
2022-08-26T11:58:00.857Z,7.70
2022-08-26T12:01:11.507Z,6.68
2022-08-26T12:03:44.024Z,7.88
2022-08-26T12:06:21.629Z,6.05
2022-08-26T12:08:49.304Z,6.90
2022-08-26T12:11:29.428Z,6.68
2022-08-26T12:14:00.982Z,6.50
2022-08-26T12:16:33.679Z,7.10
2022-08-26T12:19:00.431Z,6.40
2022-08-26T12:21:34.581Z,6.30
2022-08-26T12:24:03.977Z,6.40
2022-08-26T12:26:35.699Z,7.13
2022-08-26T12:29:26.916Z,6.80
2022-08-26T12:32:15.635Z,6.22
2022-08-26T12:34:44.430Z,7.57
2022-08-26T12:37:13.007Z,7.40
2022-08-26T12:39:43.464Z,6.38
2022-08-26T12:42:13.222Z,6.72
2022-08-26T12:45:06.440Z,6.25
2022-08-26T12:47:44.145Z,6.47
2022-08-26T12:50:51.365Z,5.95
2022-08-26T12:53:22.159Z,7.05
2022-08-26T12:56:01.477Z,5.90
2022-08-26T12:58:32.851Z,6.50
2022-08-26T13:01:08.738Z,6.68
2022-08-26T13:06:29.609Z,6.60
2022-08-26T13:08:57.834Z,5.93
2022-08-26T13:11:38.647Z,6.75
2022-08-26T13:14:12.422Z,6.95
2022-08-26T13:16:49.245Z,6.13
2022-08-26T13:19:19.107Z,6.85
2022-08-26T13:21:49.000Z,7.05
2022-08-26T13:24:21.718Z,6.65
2022-08-26T13:26:49.717Z,7.07
2022-08-26T13:29:17.194Z,8.13
2022-08-26T13:31:45.553Z,7.18
2022-08-26T13:34:16.217Z,7.43
2022-08-26T13:36:44.902Z,8.13
2022-08-26T13:39:12.510Z,7.35
2022-08-26T13:41:39.511Z,7.63
2022-08-26T13:44:06.813Z,7.70
2022-08-26T13:46:33.681Z,7.60
2022-08-26T13:49:00.600Z,7.45
2022-08-26T13:51:27.926Z,8.05
2022-08-26T13:53:54.918Z,7.03
2022-08-26T13:56:22.943Z,7.35
2022-08-26T13:58:50.034Z,7.93
2022-08-26T14:01:17.001Z,7.18
2022-08-26T14:03:43.944Z,7.95
2022-08-26T14:06:10.875Z,4.50
2022-08-26T14:08:38.903Z,6.00
2022-08-26T14:11:05.925Z,4.88
2022-08-26T14:13:32.718Z,5.53
2022-08-26T14:16:01.451Z,4.82
2022-08-26T14:18:32.161Z,5.63
2022-08-26T14:20:59.316Z,5.40
2022-08-26T14:23:26.893Z,5.28
2022-08-26T14:25:53.808Z,5.60
2022-08-26T14:28:20.569Z,5.80
2022-08-26T14:30:52.740Z,5.53
2022-08-26T14:33:25.608Z,5.68
2022-08-26T14:35:53.074Z,5.63
2022-08-26T14:38:19.778Z,6.65
2022-08-26T14:40:46.629Z,6.47
2022-08-26T14:43:16.487Z,6.03
2022-08-26T14:45:45.129Z,6.43
2022-08-26T14:48:12.003Z,6.22
2022-08-26T14:50:38.974Z,6.05
2022-08-26T14:53:24.541Z,6.10
2022-08-26T14:55:51.505Z,6.47
2022-08-26T14:58:18.211Z,5.78
2022-08-26T15:00:44.954Z,5.82
2022-08-26T15:05:47.955Z,6.28
2022-08-26T15:08:15.634Z,6.20
2022-08-26T15:10:42.328Z,6.50
2022-08-26T15:13:09.093Z,6.75
2022-08-26T15:15:35.844Z,6.63
2022-08-26T15:18:02.598Z,5.45
2022-08-26T15:20:29.457Z,6.32
2022-08-26T15:22:56.977Z,6.05
2022-08-26T15:25:28.967Z,6.30
2022-08-26T15:27:55.668Z,5.72
2022-08-26T15:30:22.499Z,8.48
2022-08-26T15:32:49.294Z,6.85
2022-08-26T15:35:16.500Z,6.30
2022-08-26T15:37:45.464Z,6.03
2022-08-26T15:40:12.548Z,6.60
2022-08-26T15:42:39.613Z,6.72
2022-08-26T15:45:06.821Z,7.13
2022-08-26T15:47:33.712Z,8.23
2022-08-26T15:50:16.130Z,8.23
2022-08-26T15:52:42.949Z,8.27
2022-08-26T15:55:10.219Z,8.20
2022-08-26T15:57:37.148Z,9.07
2022-08-26T16:00:05.231Z,7.30
2022-08-26T16:02:38.637Z,6.88
2022-08-26T16:05:05.657Z,7.80
2022-08-26T16:07:32.600Z,7.47
2022-08-26T16:09:59.278Z,8.00
2022-08-26T16:12:25.990Z,8.90
2022-08-26T16:14:53.945Z,9.30
2022-08-26T16:17:20.917Z,8.95
2022-08-26T16:19:47.617Z,9.70
2022-08-26T16:22:14.268Z,10.75
2022-08-26T16:24:40.982Z,10.23
2022-08-26T16:27:08.384Z,10.23
2022-08-26T16:29:37.351Z,10.60
2022-08-26T16:32:08.650Z,10.75
2022-08-26T16:34:38.460Z,9.98
2022-08-26T16:37:24.598Z,9.98
2022-08-26T16:39:51.576Z,8.70
2022-08-26T16:42:18.450Z,9.57
2022-08-26T16:44:45.483Z,8.88
2022-08-26T16:47:16.078Z,8.90
2022-08-26T16:49:43.061Z,10.20
2022-08-26T16:52:11.373Z,9.85
2022-08-26T16:54:41.422Z,8.95
2022-08-26T16:57:10.437Z,8.57
2022-08-26T16:59:37.169Z,9.35
2022-08-26T17:02:04.985Z,9.15
2022-08-26T17:04:32.071Z,9.25
2022-08-26T17:06:59.759Z,8.43
2022-08-26T17:09:29.223Z,9.70
2022-08-26T17:11:55.966Z,8.55
2022-08-26T17:14:22.770Z,9.52
2022-08-26T17:16:51.334Z,9.07
2022-08-26T17:19:19.956Z,8.35
2022-08-26T17:21:47.296Z,9.77
2022-08-26T17:24:14.663Z,10.70
2022-08-26T17:26:44.279Z,10.40
2022-08-26T17:29:15.172Z,9.70
2022-08-26T17:31:43.513Z,12.70
2022-08-26T17:34:10.464Z,11.13
2022-08-26T17:36:37.323Z,9.60
2022-08-26T17:39:04.412Z,10.15
2022-08-26T17:41:31.236Z,9.35
2022-08-26T17:43:58.008Z,11.27
2022-08-26T17:46:25.350Z,10.15
2022-08-26T17:48:52.533Z,11.30
2022-08-26T17:51:19.962Z,12.77
2022-08-26T17:53:47.907Z,27.20
2022-08-26T17:56:17.255Z,91.03
2022-08-26T17:58:48.038Z,54.22
2022-08-26T18:01:18.867Z,14.48
2022-08-26T18:03:45.767Z,12.30
2022-08-26T18:06:13.839Z,25.10
2022-08-26T18:08:41.264Z,78.82
2022-08-26T18:11:13.642Z,26.60
2022-08-26T18:13:47.499Z,27.10
2022-08-26T18:16:16.051Z,18.23
2022-08-26T18:18:43.198Z,15.80
2022-08-26T18:21:19.794Z,14.02
2022-08-26T18:23:47.454Z,13.45
2022-08-26T18:26:20.379Z,12.63
2022-08-26T18:28:47.109Z,13.05
2022-08-26T18:31:14.916Z,13.90
2022-08-26T18:33:42.979Z,13.40
2022-08-26T18:36:24.468Z,14.55
2022-08-26T18:38:52.157Z,16.80
2022-08-26T18:41:21.057Z,20.30
2022-08-26T18:43:50.223Z,16.98
2022-08-26T18:46:18.053Z,18.77
2022-08-26T18:48:44.816Z,16.30
2022-08-26T18:51:20.341Z,15.40
2022-08-26T18:53:47.559Z,15.02
2022-08-26T18:56:16.704Z,14.35
2022-08-26T18:58:45.488Z,14.77
2022-08-26T19:01:13.259Z,14.48
2022-08-26T19:03:40.195Z,15.32
2022-08-26T19:06:07.289Z,15.35
2022-08-26T19:08:34.399Z,14.65
2022-08-26T19:11:01.264Z,13.27
2022-08-26T19:13:28.088Z,15.13
2022-08-26T19:15:55.283Z,13.65
2022-08-26T19:18:22.195Z,14.35
2022-08-26T19:20:48.918Z,14.55
2022-08-26T19:23:30.828Z,14.88
2022-08-26T19:25:58.729Z,13.80
2022-08-26T19:28:25.384Z,15.25
2022-08-26T19:30:53.233Z,16.52
2022-08-26T19:33:20.529Z,15.60
2022-08-26T19:35:47.817Z,17.35
2022-08-26T19:38:15.325Z,17.75
2022-08-26T19:40:43.065Z,17.48
2022-08-26T19:43:10.967Z,17.65
2022-08-26T19:45:39.772Z,17.70
2022-08-26T19:48:06.738Z,18.45
2022-08-26T19:50:34.585Z,17.70
2022-08-26T19:53:01.816Z,17.70
2022-08-26T19:55:35.059Z,18.20
2022-08-26T19:58:04.156Z,19.45
2022-08-26T20:00:31.977Z,17.75
2022-08-26T20:03:02.246Z,19.60
2022-08-26T20:05:29.125Z,19.42
2022-08-26T20:08:01.803Z,18.95
2022-08-26T20:10:31.319Z,18.92
2022-08-26T20:13:01.712Z,19.30
2022-08-26T20:15:28.579Z,21.20
2022-08-26T20:17:58.694Z,21.30
2022-08-26T20:20:44.326Z,21.67
2022-08-26T20:23:15.133Z,21.08
2022-08-26T20:25:42.871Z,20.63
2022-08-26T20:28:09.931Z,20.70
2022-08-26T20:30:39.519Z,19.15
2022-08-26T20:33:06.724Z,19.95
2022-08-26T20:35:33.678Z,20.23
2022-08-26T20:38:00.511Z,18.23
2022-08-26T20:40:27.348Z,21.10
2022-08-26T20:42:54.170Z,20.55
2022-08-26T20:45:21.082Z,21.23
2022-08-26T20:47:47.840Z,20.27
2022-08-26T20:50:14.545Z,20.05
2022-08-26T20:52:41.279Z,17.52
2022-08-26T20:55:08.539Z,16.92
2022-08-26T20:57:35.246Z,15.82
2022-08-26T21:00:02.254Z,14.38
2022-08-26T21:02:29.354Z,15.52
2022-08-26T21:04:56.097Z,15.43
2022-08-26T21:07:22.912Z,15.77
2022-08-26T21:09:49.609Z,14.88
2022-08-26T21:12:18.389Z,15.43
2022-08-26T21:14:49.425Z,15.50
2022-08-26T21:17:16.468Z,16.38
2022-08-26T21:19:43.283Z,16.42
2022-08-26T21:22:10.241Z,17.00
2022-08-26T21:24:36.998Z,16.25
2022-08-26T21:27:03.847Z,17.20
2022-08-26T21:29:30.646Z,19.05
2022-08-26T21:31:57.810Z,18.33
2022-08-26T21:34:24.901Z,19.38
2022-08-26T21:36:51.650Z,19.02
2022-08-26T21:39:18.461Z,18.50
2022-08-26T21:41:45.941Z,18.65
2022-08-26T21:44:14.098Z,18.10
2022-08-26T21:46:41.692Z,16.20
2022-08-26T21:49:11.146Z,13.38
2022-08-26T21:51:41.433Z,12.68
2022-08-26T21:54:11.229Z,11.77
2022-08-26T21:56:40.898Z,10.25
2022-08-26T21:59:08.273Z,11.38
2022-08-26T22:01:35.410Z,12.05
2022-08-26T22:04:04.078Z,13.88
2022-08-26T22:06:32.541Z,14.85
2022-08-26T22:08:59.860Z,16.50
2022-08-26T22:11:27.778Z,16.02
2022-08-26T22:13:56.174Z,15.85
2022-08-26T22:16:23.107Z,16.38
2022-08-26T22:18:50.057Z,14.85
2022-08-26T22:21:19.355Z,14.43
2022-08-26T22:23:46.674Z,14.68
2022-08-26T22:26:16.182Z,15.38
2022-08-26T22:28:55.585Z,13.43
2022-08-26T22:31:28.098Z,14.88
2022-08-26T22:34:06.793Z,13.52
2022-08-26T22:36:33.502Z,12.18
2022-08-26T22:39:00.993Z,11.85
2022-08-26T22:41:27.802Z,12.57
2022-08-26T22:43:54.555Z,13.50
2022-08-26T22:46:24.654Z,14.38
2022-08-26T22:48:53.718Z,13.35
2022-08-26T22:51:21.844Z,13.30
2022-08-26T22:53:48.979Z,13.65
2022-08-26T22:56:18.311Z,13.88
2022-08-26T22:58:45.597Z,13.65
2022-08-26T23:01:12.494Z,12.20
2022-08-26T23:03:39.505Z,13.07
2022-08-26T23:06:10.146Z,11.75
2022-08-26T23:08:38.034Z,12.90
2022-08-26T23:11:09.113Z,12.80
2022-08-26T23:13:36.539Z,12.50
2022-08-26T23:16:06.440Z,12.40
2022-08-26T23:18:33.246Z,12.48
2022-08-26T23:21:00.204Z,12.35
2022-08-26T23:23:27.643Z,11.95
2022-08-26T23:25:55.494Z,12.75
2022-08-26T23:28:22.675Z,10.85
2022-08-26T23:30:49.914Z,11.32
2022-08-26T23:33:16.702Z,11.52
2022-08-26T23:35:44.026Z,11.55
2022-08-26T23:38:13.439Z,10.90
2022-08-26T23:40:41.919Z,12.10
2022-08-26T23:43:11.474Z,11.23
2022-08-26T23:45:38.844Z,11.75
2022-08-26T23:48:06.486Z,11.70
2022-08-26T23:50:52.801Z,10.63
2022-08-26T23:53:22.456Z,10.68
2022-08-26T23:55:52.194Z,10.10
2022-08-26T23:58:20.768Z,10.48
